METAR AND TAF INFORMATION
METAR FOR UATT
ADDS - METARS form results

(2120 UTC 26 March 2019)
Data provider http://aviationweather.gov/metar/data/
 
METAR text: UATT 262100Z 00000MPS CAVOK M02/M03 Q1023 R13/0///60 NOSIG RMK QFE748/0997
Conditions at: UATT (AKTJUBINSK , KZ) observed 2100 UTC 26 March 2019
Temperature: -2.0°C (28°F)
Dewpoint: -3.0°C (27°F) [RH = 93%]
Pressure (altimeter): 30.21 inches Hg (1023.0 mb)
Winds: calm
Visibility: 6 or more miles (10+ km)
Ceiling: ceiling and visibility are OK
Clouds: unknown
Weather: no significant weather observed at this time

METAR text: UATT 262030Z 10002MPS CAVOK M02/M03 Q1023 R13/0///60 NOSIG RMK QFE748/0997
Conditions at: UATT (AKTJUBINSK , KZ) observed 2030 UTC 26 March 2019
Temperature: -2.0°C (28°F)
Dewpoint: -3.0°C (27°F) [RH = 93%]
Pressure (altimeter): 30.21 inches Hg (1023.0 mb)
Winds: from the E (100 degrees) at 5 MPH (4 knots; 2.1 m/s)
Visibility: 6 or more miles (10+ km)
Ceiling: ceiling and visibility are OK
Clouds: unknown
Weather: no significant weather observed at this time

Forecast for: UATT (AKTJUBINSK , KZ)
Text: TAF UATT 261700Z 2618/2718 13003MPS 9999 NSC TX09/2711Z TNM05/2702Z
Forecast period: 1800 UTC 26 March 2019 to 0600 UTC 27 March 2019
Forecast type: FROM: standard forecast or significant change
Winds: from the SE (130 degrees) at 7 MPH (6 knots; 3.1 m/s)
Visibility: 6 or more miles 10+ km)
Ceiling: unknown
Clouds: missing
Weather: no significant weather forecast for this period
Text: TEMPO 2618/2706 3100 BR SCT011
Forecast period: 1800 UTC 26 March 2019 to 0600 UTC 27 March 2019
Forecast type: TEMPORARY: The following changes expected for less than half the time period
Visibility: 1.93 miles (3.11 km)
Ceiling: at least 12,000 feet AGL
Clouds: scattered clouds at 1100 feet AGL
Weather: BR  (mist)
Text: FM270600 10007MPS CAVOK
Forecast period: 0600 to 1800 UTC 27 March 2019
Forecast type: FROM: standard forecast or significant change
Winds: from the E (100 degrees) at 16 MPH (14 knots; 7.2 m/s)
Visibility: 6 or more miles 10+ km)
Ceiling: unknown
Clouds: missing
Weather: NSW  (no significant weather)
Text: TEMPO 2712/2718 BKN011
Forecast period: 1200 to 1800 UTC 27 March 2019
Forecast type: TEMPORARY: The following changes expected for less than half the time period
Visibility: missing
Ceiling: 1100 feet AGL
Clouds: broken clouds at 1100 feet AGL
Weather: no significant weather forecast for this period

 AIRPORT MAP

 RUNWAY INFORMATION

 AIRPORT FREQUENCIES
Type APP Name APP Frequency 120.9 MHZ
Type TWR Name TWR Frequency 120.9 MHZ

 AIRPORT NEAR NAVIGATION AIDS
Type VOR-DME Name Aktyubinsk Frequency 113400 KHZ
Type NDB Name Aktyubinsk Lom Frequency 323 KHZ
Type NDB Name Aktyubinsk Lom Frequency 323 KHZ



2018 Air Astana Virtual Airline